sensor_id;sensor_type;location;lat;lon;timestamp;P1;durP1;ratioP1;P2;durP2;ratioP2
37903;SDS011;23738;50.422;18.758;2023-02-19T00:01:45;1.70;;;1.00;;
37903;SDS011;23738;50.422;18.758;2023-02-19T00:04:32;1.50;;;0.90;;
37903;SDS011;23738;50.422;18.758;2023-02-19T00:06:59;1.50;;;1.10;;
37903;SDS011;23738;50.422;18.758;2023-02-19T00:09:27;1.30;;;0.90;;
37903;SDS011;23738;50.422;18.758;2023-02-19T00:12:34;5.90;;;1.30;;
37903;SDS011;23738;50.422;18.758;2023-02-19T00:15:01;2.70;;;0.90;;
37903;SDS011;23738;50.422;18.758;2023-02-19T00:17:30;2.20;;;1.30;;
37903;SDS011;23738;50.422;18.758;2023-02-19T00:19:57;3.30;;;2.00;;
37903;SDS011;23738;50.422;18.758;2023-02-19T00:22:25;2.60;;;2.30;;
37903;SDS011;23738;50.422;18.758;2023-02-19T00:24:52;4.70;;;4.20;;
37903;SDS011;23738;50.422;18.758;2023-02-19T00:27:19;4.10;;;3.70;;
37903;SDS011;23738;50.422;18.758;2023-02-19T00:29:47;4.80;;;4.20;;
37903;SDS011;23738;50.422;18.758;2023-02-19T00:32:15;4.50;;;4.00;;
37903;SDS011;23738;50.422;18.758;2023-02-19T00:34:43;4.00;;;3.60;;
37903;SDS011;23738;50.422;18.758;2023-02-19T00:37:10;4.30;;;3.90;;
37903;SDS011;23738;50.422;18.758;2023-02-19T00:39:37;5.00;;;4.40;;
37903;SDS011;23738;50.422;18.758;2023-02-19T00:42:05;5.60;;;4.80;;
37903;SDS011;23738;50.422;18.758;2023-02-19T00:44:32;6.30;;;4.90;;
37903;SDS011;23738;50.422;18.758;2023-02-19T00:47:20;5.00;;;4.50;;
37903;SDS011;23738;50.422;18.758;2023-02-19T00:49:47;5.00;;;4.50;;
37903;SDS011;23738;50.422;18.758;2023-02-19T00:52:14;5.30;;;4.80;;
37903;SDS011;23738;50.422;18.758;2023-02-19T00:54:41;5.60;;;5.00;;
37903;SDS011;23738;50.422;18.758;2023-02-19T00:57:29;4.10;;;3.60;;
37903;SDS011;23738;50.422;18.758;2023-02-19T00:59:56;4.00;;;3.30;;
37903;SDS011;23738;50.422;18.758;2023-02-19T01:02:24;3.90;;;3.60;;
37903;SDS011;23738;50.422;18.758;2023-02-19T01:04:51;4.60;;;4.10;;
37903;SDS011;23738;50.422;18.758;2023-02-19T01:07:19;5.80;;;5.30;;
37903;SDS011;23738;50.422;18.758;2023-02-19T01:09:46;5.70;;;5.20;;
37903;SDS011;23738;50.422;18.758;2023-02-19T01:12:13;5.50;;;4.70;;
37903;SDS011;23738;50.422;18.758;2023-02-19T01:14:41;6.50;;;4.20;;
37903;SDS011;23738;50.422;18.758;2023-02-19T01:17:08;5.60;;;5.00;;
37903;SDS011;23738;50.422;18.758;2023-02-19T01:19:36;8.60;;;5.20;;
37903;SDS011;23738;50.422;18.758;2023-02-19T01:22:03;4.90;;;4.40;;
37903;SDS011;23738;50.422;18.758;2023-02-19T01:24:30;6.00;;;4.70;;
37903;SDS011;23738;50.422;18.758;2023-02-19T01:26:58;6.00;;;5.10;;
37903;SDS011;23738;50.422;18.758;2023-02-19T01:29:25;7.90;;;5.30;;
37903;SDS011;23738;50.422;18.758;2023-02-19T01:31:52;5.00;;;4.20;;
37903;SDS011;23738;50.422;18.758;2023-02-19T01:34:20;4.20;;;3.80;;
37903;SDS011;23738;50.422;18.758;2023-02-19T01:36:47;5.60;;;4.70;;
37903;SDS011;23738;50.422;18.758;2023-02-19T01:39:14;7.50;;;6.20;;
37903;SDS011;23738;50.422;18.758;2023-02-19T01:41:42;9.20;;;6.70;;
37903;SDS011;23738;50.422;18.758;2023-02-19T01:47:08;9.90;;;7.50;;
37903;SDS011;23738;50.422;18.758;2023-02-19T01:49:36;9.10;;;6.80;;
37903;SDS011;23738;50.422;18.758;2023-02-19T01:52:11;7.70;;;6.20;;
37903;SDS011;23738;50.422;18.758;2023-02-19T01:54:59;8.00;;;5.90;;
37903;SDS011;23738;50.422;18.758;2023-02-19T01:57:47;6.90;;;5.40;;
37903;SDS011;23738;50.422;18.758;2023-02-19T02:02:49;7.40;;;4.80;;
37903;SDS011;23738;50.422;18.758;2023-02-19T02:05:22;6.70;;;4.90;;
37903;SDS011;23738;50.422;18.758;2023-02-19T02:07:57;5.30;;;4.40;;
37903;SDS011;23738;50.422;18.758;2023-02-19T02:10:45;4.80;;;3.90;;
37903;SDS011;23738;50.422;18.758;2023-02-19T02:13:13;4.90;;;4.10;;
37903;SDS011;23738;50.422;18.758;2023-02-19T02:15:43;4.40;;;4.00;;
37903;SDS011;23738;50.422;18.758;2023-02-19T02:18:22;5.30;;;4.10;;
37903;SDS011;23738;50.422;18.758;2023-02-19T02:21:02;7.00;;;3.80;;
37903;SDS011;23738;50.422;18.758;2023-02-19T02:23:45;3.70;;;3.20;;
37903;SDS011;23738;50.422;18.758;2023-02-19T02:26:27;3.40;;;3.10;;
37903;SDS011;23738;50.422;18.758;2023-02-19T02:29:08;3.00;;;2.50;;
37903;SDS011;23738;50.422;18.758;2023-02-19T02:31:52;3.20;;;2.90;;
37903;SDS011;23738;50.422;18.758;2023-02-19T02:37:27;3.70;;;3.30;;
37903;SDS011;23738;50.422;18.758;2023-02-19T02:40:00;3.50;;;2.80;;
37903;SDS011;23738;50.422;18.758;2023-02-19T02:42:30;3.50;;;2.60;;
37903;SDS011;23738;50.422;18.758;2023-02-19T02:45:14;3.10;;;2.40;;
37903;SDS011;23738;50.422;18.758;2023-02-19T02:48:15;2.90;;;2.20;;
37903;SDS011;23738;50.422;18.758;2023-02-19T02:50:51;3.10;;;2.60;;
37903;SDS011;23738;50.422;18.758;2023-02-19T02:53:22;2.90;;;2.10;;
37903;SDS011;23738;50.422;18.758;2023-02-19T02:56:10;2.80;;;2.00;;
37903;SDS011;23738;50.422;18.758;2023-02-19T02:58:41;1.60;;;1.00;;
37903;SDS011;23738;50.422;18.758;2023-02-19T03:01:10;1.70;;;1.10;;
37903;SDS011;23738;50.422;18.758;2023-02-19T03:04:01;1.50;;;1.00;;
37903;SDS011;23738;50.422;18.758;2023-02-19T03:06:32;1.50;;;1.40;;
37903;SDS011;23738;50.422;18.758;2023-02-19T03:09:05;0.90;;;0.70;;
37903;SDS011;23738;50.422;18.758;2023-02-19T03:11:36;0.70;;;0.60;;
37903;SDS011;23738;50.422;18.758;2023-02-19T03:14:28;1.00;;;0.80;;
37903;SDS011;23738;50.422;18.758;2023-02-19T03:17:21;0.70;;;0.60;;
37903;SDS011;23738;50.422;18.758;2023-02-19T03:20:13;1.50;;;0.80;;
37903;SDS011;23738;50.422;18.758;2023-02-19T03:22:43;0.40;;;0.40;;
37903;SDS011;23738;50.422;18.758;2023-02-19T03:25:12;0.60;;;0.50;;
37903;SDS011;23738;50.422;18.758;2023-02-19T03:28:02;0.90;;;0.60;;
37903;SDS011;23738;50.422;18.758;2023-02-19T03:30:33;1.20;;;0.60;;
37903;SDS011;23738;50.422;18.758;2023-02-19T03:33:05;0.90;;;0.40;;
37903;SDS011;23738;50.422;18.758;2023-02-19T03:35:37;3.50;;;2.00;;
37903;SDS011;23738;50.422;18.758;2023-02-19T03:38:28;2.80;;;1.40;;
37903;SDS011;23738;50.422;18.758;2023-02-19T03:41:03;1.10;;;0.90;;
37903;SDS011;23738;50.422;18.758;2023-02-19T03:43:37;1.30;;;1.10;;
37903;SDS011;23738;50.422;18.758;2023-02-19T03:46:11;1.50;;;1.30;;
37903;SDS011;23738;50.422;18.758;2023-02-19T03:48:44;2.10;;;1.50;;
37903;SDS011;23738;50.422;18.758;2023-02-19T03:51:19;2.40;;;1.70;;
37903;SDS011;23738;50.422;18.758;2023-02-19T03:53:57;2.60;;;2.20;;
37903;SDS011;23738;50.422;18.758;2023-02-19T03:56:36;2.40;;;2.20;;
37903;SDS011;23738;50.422;18.758;2023-02-19T03:59:09;4.20;;;3.90;;
37903;SDS011;23738;50.422;18.758;2023-02-19T04:01:43;5.70;;;5.30;;
37903;SDS011;23738;50.422;18.758;2023-02-19T04:04:16;5.90;;;5.40;;
37903;SDS011;23738;50.422;18.758;2023-02-19T04:06:48;6.70;;;6.10;;
37903;SDS011;23738;50.422;18.758;2023-02-19T04:09:36;7.00;;;6.40;;
37903;SDS011;23738;50.422;18.758;2023-02-19T04:12:07;6.10;;;5.50;;
37903;SDS011;23738;50.422;18.758;2023-02-19T04:14:57;7.50;;;6.80;;
37903;SDS011;23738;50.422;18.758;2023-02-19T04:18:04;8.00;;;7.10;;
37903;SDS011;23738;50.422;18.758;2023-02-19T04:20:35;8.20;;;7.50;;
37903;SDS011;23738;50.422;18.758;2023-02-19T04:23:08;7.50;;;6.70;;
37903;SDS011;23738;50.422;18.758;2023-02-19T04:25:36;7.80;;;5.50;;
37903;SDS011;23738;50.422;18.758;2023-02-19T04:28:07;6.40;;;5.60;;
37903;SDS011;23738;50.422;18.758;2023-02-19T04:30:35;6.90;;;6.10;;
37903;SDS011;23738;50.422;18.758;2023-02-19T04:33:02;8.70;;;7.10;;
37903;SDS011;23738;50.422;18.758;2023-02-19T04:35:30;7.10;;;6.20;;
37903;SDS011;23738;50.422;18.758;2023-02-19T04:37:57;7.10;;;6.30;;
37903;SDS011;23738;50.422;18.758;2023-02-19T04:40:25;6.10;;;5.50;;
37903;SDS011;23738;50.422;18.758;2023-02-19T04:42:52;5.40;;;4.30;;
37903;SDS011;23738;50.422;18.758;2023-02-19T04:45:40;4.10;;;3.70;;
37903;SDS011;23738;50.422;18.758;2023-02-19T04:48:07;4.40;;;4.00;;
37903;SDS011;23738;50.422;18.758;2023-02-19T04:50:37;4.10;;;3.70;;
37903;SDS011;23738;50.422;18.758;2023-02-19T04:53:04;5.00;;;4.50;;
37903;SDS011;23738;50.422;18.758;2023-02-19T04:55:34;5.00;;;4.30;;
37903;SDS011;23738;50.422;18.758;2023-02-19T04:58:03;5.10;;;4.40;;
37903;SDS011;23738;50.422;18.758;2023-02-19T05:00:30;4.30;;;3.70;;
37903;SDS011;23738;50.422;18.758;2023-02-19T05:02:58;4.60;;;4.20;;
37903;SDS011;23738;50.422;18.758;2023-02-19T05:05:46;5.20;;;4.70;;
37903;SDS011;23738;50.422;18.758;2023-02-19T05:08:13;5.80;;;5.30;;
37903;SDS011;23738;50.422;18.758;2023-02-19T05:10:40;5.80;;;4.20;;
37903;SDS011;23738;50.422;18.758;2023-02-19T05:13:08;11.10;;;8.90;;
37903;SDS011;23738;50.422;18.758;2023-02-19T05:15:36;6.70;;;6.00;;
37903;SDS011;23738;50.422;18.758;2023-02-19T05:18:04;6.40;;;5.80;;
37903;SDS011;23738;50.422;18.758;2023-02-19T05:20:31;6.30;;;5.50;;
37903;SDS011;23738;50.422;18.758;2023-02-19T05:23:19;6.60;;;6.00;;
37903;SDS011;23738;50.422;18.758;2023-02-19T05:25:47;6.90;;;6.30;;
37903;SDS011;23738;50.422;18.758;2023-02-19T05:28:14;6.30;;;5.70;;
37903;SDS011;23738;50.422;18.758;2023-02-19T05:31:03;8.80;;;8.00;;
37903;SDS011;23738;50.422;18.758;2023-02-19T05:33:33;9.40;;;8.60;;
37903;SDS011;23738;50.422;18.758;2023-02-19T05:36:04;12.20;;;10.30;;
37903;SDS011;23738;50.422;18.758;2023-02-19T05:38:34;10.50;;;9.20;;
37903;SDS011;23738;50.422;18.758;2023-02-19T05:41:09;11.70;;;10.10;;
37903;SDS011;23738;50.422;18.758;2023-02-19T05:43:39;17.10;;;11.30;;
37903;SDS011;23738;50.422;18.758;2023-02-19T05:46:09;13.50;;;11.80;;
37903;SDS011;23738;50.422;18.758;2023-02-19T05:48:38;21.10;;;15.50;;
37903;SDS011;23738;50.422;18.758;2023-02-19T05:51:07;20.60;;;16.20;;
37903;SDS011;23738;50.422;18.758;2023-02-19T05:53:35;23.20;;;14.90;;
37903;SDS011;23738;50.422;18.758;2023-02-19T05:56:04;21.50;;;14.90;;
37903;SDS011;23738;50.422;18.758;2023-02-19T05:58:49;17.30;;;14.10;;
37903;SDS011;23738;50.422;18.758;2023-02-19T06:01:33;14.70;;;13.20;;
37903;SDS011;23738;50.422;18.758;2023-02-19T06:04:20;17.00;;;14.30;;
37903;SDS011;23738;50.422;18.758;2023-02-19T06:06:48;17.80;;;14.60;;
37903;SDS011;23738;50.422;18.758;2023-02-19T06:09:15;14.30;;;12.10;;
37903;SDS011;23738;50.422;18.758;2023-02-19T06:11:43;11.90;;;10.50;;
37903;SDS011;23738;50.422;18.758;2023-02-19T06:14:11;15.20;;;11.20;;
37903;SDS011;23738;50.422;18.758;2023-02-19T06:16:38;13.50;;;10.80;;
37903;SDS011;23738;50.422;18.758;2023-02-19T06:19:06;11.80;;;10.00;;
37903;SDS011;23738;50.422;18.758;2023-02-19T06:21:34;12.30;;;10.80;;
37903;SDS011;23738;50.422;18.758;2023-02-19T06:24:04;11.70;;;10.50;;
37903;SDS011;23738;50.422;18.758;2023-02-19T06:26:32;12.10;;;10.40;;
37903;SDS011;23738;50.422;18.758;2023-02-19T06:29:00;12.30;;;9.30;;
37903;SDS011;23738;50.422;18.758;2023-02-19T06:31:27;9.40;;;8.40;;
37903;SDS011;23738;50.422;18.758;2023-02-19T06:33:54;9.70;;;8.50;;
37903;SDS011;23738;50.422;18.758;2023-02-19T06:36:22;11.00;;;9.30;;
37903;SDS011;23738;50.422;18.758;2023-02-19T06:38:50;13.60;;;11.30;;
37903;SDS011;23738;50.422;18.758;2023-02-19T06:41:17;14.40;;;11.30;;
37903;SDS011;23738;50.422;18.758;2023-02-19T06:44:04;11.90;;;10.50;;
37903;SDS011;23738;50.422;18.758;2023-02-19T06:46:32;13.80;;;12.40;;
37903;SDS011;23738;50.422;18.758;2023-02-19T06:49:00;12.80;;;11.10;;
37903;SDS011;23738;50.422;18.758;2023-02-19T06:51:48;18.00;;;15.90;;
37903;SDS011;23738;50.422;18.758;2023-02-19T06:54:15;16.50;;;14.80;;
37903;SDS011;23738;50.422;18.758;2023-02-19T06:56:42;17.60;;;14.50;;
37903;SDS011;23738;50.422;18.758;2023-02-19T06:59:30;15.00;;;12.90;;
37903;SDS011;23738;50.422;18.758;2023-02-19T07:01:57;16.70;;;11.60;;
37903;SDS011;23738;50.422;18.758;2023-02-19T07:04:24;15.20;;;12.20;;
37903;SDS011;23738;50.422;18.758;2023-02-19T07:06:51;16.10;;;12.30;;
37903;SDS011;23738;50.422;18.758;2023-02-19T07:09:19;26.50;;;15.50;;
37903;SDS011;23738;50.422;18.758;2023-02-19T07:11:46;25.40;;;17.20;;
37903;SDS011;23738;50.422;18.758;2023-02-19T07:14:14;21.00;;;13.90;;
37903;SDS011;23738;50.422;18.758;2023-02-19T07:16:42;21.70;;;14.40;;
37903;SDS011;23738;50.422;18.758;2023-02-19T07:19:12;15.80;;;12.20;;
37903;SDS011;23738;50.422;18.758;2023-02-19T07:21:40;17.40;;;14.20;;
37903;SDS011;23738;50.422;18.758;2023-02-19T07:24:08;14.00;;;12.60;;
37903;SDS011;23738;50.422;18.758;2023-02-19T07:26:35;14.80;;;13.00;;
37903;SDS011;23738;50.422;18.758;2023-02-19T07:29:03;15.70;;;14.10;;
37903;SDS011;23738;50.422;18.758;2023-02-19T07:31:30;17.80;;;12.70;;
37903;SDS011;23738;50.422;18.758;2023-02-19T07:33:58;11.10;;;10.00;;
37903;SDS011;23738;50.422;18.758;2023-02-19T07:36:25;13.30;;;12.10;;
37903;SDS011;23738;50.422;18.758;2023-02-19T07:38:52;11.50;;;10.40;;
37903;SDS011;23738;50.422;18.758;2023-02-19T07:41:20;11.40;;;10.40;;
37903;SDS011;23738;50.422;18.758;2023-02-19T07:43:48;9.20;;;8.40;;
37903;SDS011;23738;50.422;18.758;2023-02-19T07:46:15;11.20;;;10.20;;
37903;SDS011;23738;50.422;18.758;2023-02-19T07:48:42;11.60;;;10.40;;
37903;SDS011;23738;50.422;18.758;2023-02-19T07:51:11;16.40;;;12.80;;
37903;SDS011;23738;50.422;18.758;2023-02-19T07:53:41;15.80;;;12.90;;
37903;SDS011;23738;50.422;18.758;2023-02-19T07:56:10;13.50;;;12.10;;
37903;SDS011;23738;50.422;18.758;2023-02-19T07:58:38;12.40;;;11.20;;
37903;SDS011;23738;50.422;18.758;2023-02-19T08:01:07;10.70;;;9.70;;
37903;SDS011;23738;50.422;18.758;2023-02-19T08:03:36;8.90;;;8.00;;
37903;SDS011;23738;50.422;18.758;2023-02-19T08:06:04;10.10;;;9.20;;
37903;SDS011;23738;50.422;18.758;2023-02-19T08:08:33;10.90;;;9.90;;
37903;SDS011;23738;50.422;18.758;2023-02-19T08:11:00;11.90;;;10.90;;
37903;SDS011;23738;50.422;18.758;2023-02-19T08:13:49;11.70;;;10.70;;
37903;SDS011;23738;50.422;18.758;2023-02-19T08:16:18;12.60;;;11.50;;
37903;SDS011;23738;50.422;18.758;2023-02-19T08:18:46;13.20;;;12.20;;
37903;SDS011;23738;50.422;18.758;2023-02-19T08:21:14;13.30;;;12.20;;
37903;SDS011;23738;50.422;18.758;2023-02-19T08:23:43;14.30;;;13.20;;
37903;SDS011;23738;50.422;18.758;2023-02-19T08:26:11;15.80;;;14.50;;
37903;SDS011;23738;50.422;18.758;2023-02-19T08:28:38;20.50;;;18.70;;
37903;SDS011;23738;50.422;18.758;2023-02-19T08:31:08;14.60;;;13.40;;
37903;SDS011;23738;50.422;18.758;2023-02-19T08:33:38;8.00;;;7.30;;
37903;SDS011;23738;50.422;18.758;2023-02-19T08:36:07;6.10;;;5.40;;
37903;SDS011;23738;50.422;18.758;2023-02-19T08:38:36;4.50;;;3.30;;
37903;SDS011;23738;50.422;18.758;2023-02-19T08:41:05;4.00;;;3.40;;
37903;SDS011;23738;50.422;18.758;2023-02-19T08:43:34;7.00;;;5.20;;
37903;SDS011;23738;50.422;18.758;2023-02-19T08:46:02;6.00;;;5.40;;
37903;SDS011;23738;50.422;18.758;2023-02-19T08:48:31;6.40;;;5.70;;
37903;SDS011;23738;50.422;18.758;2023-02-19T08:50:59;18.40;;;11.50;;
37903;SDS011;23738;50.422;18.758;2023-02-19T08:53:30;10.70;;;9.60;;
37903;SDS011;23738;50.422;18.758;2023-02-19T08:55:58;11.30;;;10.00;;
37903;SDS011;23738;50.422;18.758;2023-02-19T08:58:30;6.00;;;5.40;;
37903;SDS011;23738;50.422;18.758;2023-02-19T09:00:57;4.50;;;4.00;;
37903;SDS011;23738;50.422;18.758;2023-02-19T09:03:25;4.40;;;3.90;;
37903;SDS011;23738;50.422;18.758;2023-02-19T09:05:52;3.80;;;3.20;;
37903;SDS011;23738;50.422;18.758;2023-02-19T09:08:20;4.90;;;2.90;;
37903;SDS011;23738;50.422;18.758;2023-02-19T09:10:56;6.00;;;3.50;;
37903;SDS011;23738;50.422;18.758;2023-02-19T09:13:24;4.70;;;3.40;;
37903;SDS011;23738;50.422;18.758;2023-02-19T09:15:51;4.40;;;3.70;;
37903;SDS011;23738;50.422;18.758;2023-02-19T09:18:19;4.20;;;3.60;;
37903;SDS011;23738;50.422;18.758;2023-02-19T09:20:54;3.80;;;2.80;;
37903;SDS011;23738;50.422;18.758;2023-02-19T09:23:25;4.00;;;3.00;;
37903;SDS011;23738;50.422;18.758;2023-02-19T09:25:56;2.80;;;2.30;;
37903;SDS011;23738;50.422;18.758;2023-02-19T09:28:24;5.40;;;3.80;;
37903;SDS011;23738;50.422;18.758;2023-02-19T09:30:52;3.80;;;3.00;;
37903;SDS011;23738;50.422;18.758;2023-02-19T09:33:19;6.80;;;3.00;;
37903;SDS011;23738;50.422;18.758;2023-02-19T09:35:47;6.80;;;6.10;;
37903;SDS011;23738;50.422;18.758;2023-02-19T09:38:15;55.40;;;46.80;;
37903;SDS011;23738;50.422;18.758;2023-02-19T09:40:42;41.60;;;36.90;;
37903;SDS011;23738;50.422;18.758;2023-02-19T09:43:12;19.40;;;17.80;;
37903;SDS011;23738;50.422;18.758;2023-02-19T09:45:43;9.60;;;8.70;;
37903;SDS011;23738;50.422;18.758;2023-02-19T09:48:11;3.80;;;3.40;;
37903;SDS011;23738;50.422;18.758;2023-02-19T09:50:40;3.00;;;2.20;;
37903;SDS011;23738;50.422;18.758;2023-02-19T09:53:13;3.90;;;3.10;;
37903;SDS011;23738;50.422;18.758;2023-02-19T09:55:44;2.80;;;2.40;;
37903;SDS011;23738;50.422;18.758;2023-02-19T09:58:18;3.30;;;2.30;;
37903;SDS011;23738;50.422;18.758;2023-02-19T10:00:52;2.80;;;1.90;;
37903;SDS011;23738;50.422;18.758;2023-02-19T10:03:22;1.90;;;1.50;;
37903;SDS011;23738;50.422;18.758;2023-02-19T10:05:55;2.50;;;1.70;;
37903;SDS011;23738;50.422;18.758;2023-02-19T10:08:24;5.00;;;4.10;;
37903;SDS011;23738;50.422;18.758;2023-02-19T10:10:51;3.20;;;2.90;;
37903;SDS011;23738;50.422;18.758;2023-02-19T10:13:20;17.40;;;13.60;;
37903;SDS011;23738;50.422;18.758;2023-02-19T10:15:50;13.70;;;10.80;;
37903;SDS011;23738;50.422;18.758;2023-02-19T10:18:21;9.30;;;8.30;;
37903;SDS011;23738;50.422;18.758;2023-02-19T10:20:50;10.60;;;8.60;;
37903;SDS011;23738;50.422;18.758;2023-02-19T10:23:18;9.30;;;4.20;;
37903;SDS011;23738;50.422;18.758;2023-02-19T10:25:46;3.60;;;2.00;;
37903;SDS011;23738;50.422;18.758;2023-02-19T10:28:19;4.20;;;3.50;;
37903;SDS011;23738;50.422;18.758;2023-02-19T10:30:51;6.00;;;3.50;;
37903;SDS011;23738;50.422;18.758;2023-02-19T10:33:20;7.70;;;5.70;;
37903;SDS011;23738;50.422;18.758;2023-02-19T10:35:53;6.60;;;5.50;;
37903;SDS011;23738;50.422;18.758;2023-02-19T10:38:23;4.70;;;3.10;;
37903;SDS011;23738;50.422;18.758;2023-02-19T10:40:57;11.60;;;7.70;;
37903;SDS011;23738;50.422;18.758;2023-02-19T10:43:28;16.40;;;10.60;;
37903;SDS011;23738;50.422;18.758;2023-02-19T10:45:59;9.10;;;7.40;;
37903;SDS011;23738;50.422;18.758;2023-02-19T10:48:30;8.20;;;7.00;;
37903;SDS011;23738;50.422;18.758;2023-02-19T10:51:01;7.70;;;5.60;;
37903;SDS011;23738;50.422;18.758;2023-02-19T10:53:39;8.20;;;6.50;;
37903;SDS011;23738;50.422;18.758;2023-02-19T10:56:09;8.50;;;4.30;;
37903;SDS011;23738;50.422;18.758;2023-02-19T10:58:40;6.70;;;2.20;;
37903;SDS011;23738;50.422;18.758;2023-02-19T11:01:11;2.60;;;2.30;;
37903;SDS011;23738;50.422;18.758;2023-02-19T11:03:45;2.40;;;1.40;;
37903;SDS011;23738;50.422;18.758;2023-02-19T11:06:13;2.10;;;1.50;;
37903;SDS011;23738;50.422;18.758;2023-02-19T11:09:01;3.40;;;2.70;;
37903;SDS011;23738;50.422;18.758;2023-02-19T11:11:32;4.40;;;1.90;;
37903;SDS011;23738;50.422;18.758;2023-02-19T11:14:02;3.70;;;2.80;;
37903;SDS011;23738;50.422;18.758;2023-02-19T11:16:40;1.80;;;1.60;;
37903;SDS011;23738;50.422;18.758;2023-02-19T11:19:22;1.20;;;1.00;;
37903;SDS011;23738;50.422;18.758;2023-02-19T11:21:52;1.80;;;1.20;;
37903;SDS011;23738;50.422;18.758;2023-02-19T11:24:30;1.20;;;0.70;;
37903;SDS011;23738;50.422;18.758;2023-02-19T11:26:59;1.70;;;1.30;;
37903;SDS011;23738;50.422;18.758;2023-02-19T11:29:30;2.60;;;1.80;;
37903;SDS011;23738;50.422;18.758;2023-02-19T11:32:15;10.80;;;7.50;;
37903;SDS011;23738;50.422;18.758;2023-02-19T11:35:03;3.10;;;2.10;;
37903;SDS011;23738;50.422;18.758;2023-02-19T11:37:44;2.30;;;1.20;;
37903;SDS011;23738;50.422;18.758;2023-02-19T11:40:20;1.90;;;1.20;;
37903;SDS011;23738;50.422;18.758;2023-02-19T11:42:56;1.30;;;0.80;;
37903;SDS011;23738;50.422;18.758;2023-02-19T11:45:30;1.60;;;0.90;;
37903;SDS011;23738;50.422;18.758;2023-02-19T11:48:07;1.90;;;1.10;;
37903;SDS011;23738;50.422;18.758;2023-02-19T11:50:53;1.90;;;1.10;;
37903;SDS011;23738;50.422;18.758;2023-02-19T11:53:31;2.10;;;1.30;;
37903;SDS011;23738;50.422;18.758;2023-02-19T11:56:05;4.80;;;1.90;;
37903;SDS011;23738;50.422;18.758;2023-02-19T12:01:27;3.10;;;1.10;;
37903;SDS011;23738;50.422;18.758;2023-02-19T12:04:22;2.10;;;0.70;;
37903;SDS011;23738;50.422;18.758;2023-02-19T12:07:17;2.10;;;1.00;;
37903;SDS011;23738;50.422;18.758;2023-02-19T12:10:02;2.10;;;0.90;;
37903;SDS011;23738;50.422;18.758;2023-02-19T12:12:49;2.20;;;1.10;;
37903;SDS011;23738;50.422;18.758;2023-02-19T12:18:14;4.90;;;1.90;;
37903;SDS011;23738;50.422;18.758;2023-02-19T12:21:12;6.10;;;3.40;;
37903;SDS011;23738;50.422;18.758;2023-02-19T12:24:04;6.40;;;3.10;;
37903;SDS011;23738;50.422;18.758;2023-02-19T12:26:41;2.50;;;1.90;;
37903;SDS011;23738;50.422;18.758;2023-02-19T12:29:18;3.60;;;1.90;;
37903;SDS011;23738;50.422;18.758;2023-02-19T12:32:02;5.00;;;3.10;;
37903;SDS011;23738;50.422;18.758;2023-02-19T12:37:38;4.30;;;2.10;;
37903;SDS011;23738;50.422;18.758;2023-02-19T12:40:16;3.60;;;1.70;;
37903;SDS011;23738;50.422;18.758;2023-02-19T12:42:56;3.00;;;1.40;;
37903;SDS011;23738;50.422;18.758;2023-02-19T12:45:34;5.30;;;2.70;;
37903;SDS011;23738;50.422;18.758;2023-02-19T12:48:05;3.40;;;2.00;;
37903;SDS011;23738;50.422;18.758;2023-02-19T12:50:40;3.70;;;2.00;;
37903;SDS011;23738;50.422;18.758;2023-02-19T12:53:15;3.00;;;1.50;;
37903;SDS011;23738;50.422;18.758;2023-02-19T12:55:54;2.80;;;1.10;;
37903;SDS011;23738;50.422;18.758;2023-02-19T12:58:26;7.20;;;4.10;;
37903;SDS011;23738;50.422;18.758;2023-02-19T13:00:58;6.50;;;2.40;;
37903;SDS011;23738;50.422;18.758;2023-02-19T13:03:28;6.70;;;2.90;;
37903;SDS011;23738;50.422;18.758;2023-02-19T13:06:00;9.80;;;2.90;;
37903;SDS011;23738;50.422;18.758;2023-02-19T13:08:36;3.90;;;2.20;;
37903;SDS011;23738;50.422;18.758;2023-02-19T13:11:13;6.10;;;3.60;;
37903;SDS011;23738;50.422;18.758;2023-02-19T13:13:44;5.30;;;3.40;;
37903;SDS011;23738;50.422;18.758;2023-02-19T13:16:17;5.60;;;2.70;;
37903;SDS011;23738;50.422;18.758;2023-02-19T13:18:46;3.30;;;1.70;;
37903;SDS011;23738;50.422;18.758;2023-02-19T13:21:16;8.00;;;3.80;;
37903;SDS011;23738;50.422;18.758;2023-02-19T13:24:00;4.30;;;2.40;;
37903;SDS011;23738;50.422;18.758;2023-02-19T13:26:40;2.10;;;1.30;;
37903;SDS011;23738;50.422;18.758;2023-02-19T13:29:19;3.10;;;1.60;;
37903;SDS011;23738;50.422;18.758;2023-02-19T13:32:26;3.30;;;1.50;;
37903;SDS011;23738;50.422;18.758;2023-02-19T13:35:18;5.70;;;3.40;;
37903;SDS011;23738;50.422;18.758;2023-02-19T13:37:54;5.60;;;3.00;;
37903;SDS011;23738;50.422;18.758;2023-02-19T13:40:29;5.30;;;2.90;;
37903;SDS011;23738;50.422;18.758;2023-02-19T13:42:59;4.60;;;2.70;;
37903;SDS011;23738;50.422;18.758;2023-02-19T13:45:31;8.00;;;4.60;;
37903;SDS011;23738;50.422;18.758;2023-02-19T13:48:25;3.40;;;1.70;;
37903;SDS011;23738;50.422;18.758;2023-02-19T13:54:12;2.80;;;1.30;;
37903;SDS011;23738;50.422;18.758;2023-02-19T13:56:46;4.10;;;2.20;;
37903;SDS011;23738;50.422;18.758;2023-02-19T13:59:25;2.80;;;1.90;;
37903;SDS011;23738;50.422;18.758;2023-02-19T14:05:01;4.20;;;3.30;;
37903;SDS011;23738;50.422;18.758;2023-02-19T14:07:36;4.80;;;2.90;;
37903;SDS011;23738;50.422;18.758;2023-02-19T14:25:55;4.30;;;2.20;;
37903;SDS011;23738;50.422;18.758;2023-02-19T14:28:27;5.20;;;2.70;;
37903;SDS011;23738;50.422;18.758;2023-02-19T14:31:01;4.90;;;3.00;;
37903;SDS011;23738;50.422;18.758;2023-02-19T14:33:43;5.00;;;3.40;;
37903;SDS011;23738;50.422;18.758;2023-02-19T14:36:15;9.60;;;7.50;;
37903;SDS011;23738;50.422;18.758;2023-02-19T14:38:49;9.30;;;8.20;;
37903;SDS011;23738;50.422;18.758;2023-02-19T14:41:19;13.80;;;10.90;;
37903;SDS011;23738;50.422;18.758;2023-02-19T14:43:48;15.10;;;13.60;;
37903;SDS011;23738;50.422;18.758;2023-02-19T14:46:19;11.90;;;10.80;;
37903;SDS011;23738;50.422;18.758;2023-02-19T14:48:54;10.80;;;8.20;;
37903;SDS011;23738;50.422;18.758;2023-02-19T14:51:26;16.00;;;13.40;;
37903;SDS011;23738;50.422;18.758;2023-02-19T14:53:59;14.40;;;11.70;;
37903;SDS011;23738;50.422;18.758;2023-02-19T14:56:36;48.30;;;27.00;;
37903;SDS011;23738;50.422;18.758;2023-02-19T14:59:06;16.20;;;9.60;;
37903;SDS011;23738;50.422;18.758;2023-02-19T15:01:52;16.50;;;9.70;;
37903;SDS011;23738;50.422;18.758;2023-02-19T15:04:21;16.30;;;9.90;;
37903;SDS011;23738;50.422;18.758;2023-02-19T15:06:50;10.70;;;8.10;;
37903;SDS011;23738;50.422;18.758;2023-02-19T15:09:40;11.10;;;7.70;;
37903;SDS011;23738;50.422;18.758;2023-02-19T15:12:14;9.30;;;6.00;;
37903;SDS011;23738;50.422;18.758;2023-02-19T15:14:45;6.90;;;5.10;;
37903;SDS011;23738;50.422;18.758;2023-02-19T15:17:23;13.20;;;7.80;;
37903;SDS011;23738;50.422;18.758;2023-02-19T15:19:53;6.90;;;5.10;;
37903;SDS011;23738;50.422;18.758;2023-02-19T15:22:23;10.20;;;7.00;;
37903;SDS011;23738;50.422;18.758;2023-02-19T15:24:53;6.90;;;5.10;;
37903;SDS011;23738;50.422;18.758;2023-02-19T15:27:22;10.50;;;6.20;;
37903;SDS011;23738;50.422;18.758;2023-02-19T15:29:50;8.30;;;5.20;;
37903;SDS011;23738;50.422;18.758;2023-02-19T15:32:19;6.80;;;3.60;;
37903;SDS011;23738;50.422;18.758;2023-02-19T15:34:55;5.30;;;3.00;;
37903;SDS011;23738;50.422;18.758;2023-02-19T15:37:49;6.50;;;4.80;;
37903;SDS011;23738;50.422;18.758;2023-02-19T15:40:17;9.50;;;4.70;;
37903;SDS011;23738;50.422;18.758;2023-02-19T15:42:48;7.40;;;4.60;;